createdAt,value
2023-04-22T00:00:24.947Z,49.00
2023-04-22T00:02:53.275Z,48.50
2023-04-22T00:05:22.049Z,48.30
2023-04-22T00:07:50.485Z,50.40
2023-04-22T00:10:18.786Z,48.75
2023-04-22T00:12:48.541Z,50.30
2023-04-22T00:15:20.475Z,50.35
2023-04-22T00:17:48.817Z,49.65
2023-04-22T00:20:16.994Z,50.90
2023-04-22T00:22:45.297Z,49.97
2023-04-22T00:25:13.588Z,49.58
2023-04-22T00:27:41.848Z,49.35
2023-04-22T00:30:12.299Z,49.65
2023-04-22T00:32:40.742Z,49.05
2023-04-22T00:35:12.106Z,48.33
2023-04-22T00:37:40.573Z,51.25
2023-04-22T00:40:12.376Z,50.13
2023-04-22T00:42:40.924Z,52.03
2023-04-22T00:45:13.958Z,52.17
2023-04-22T00:47:43.129Z,47.92
2023-04-22T00:50:13.529Z,49.70
2023-04-22T00:52:46.728Z,48.35
2023-04-22T00:55:14.922Z,51.50
2023-04-22T00:57:44.997Z,51.33
2023-04-22T01:00:15.363Z,54.05
2023-04-22T01:02:48.217Z,52.67
2023-04-22T01:05:16.753Z,51.70
2023-04-22T01:07:47.414Z,51.35
2023-04-22T01:10:15.514Z,54.45
2023-04-22T01:12:44.007Z,51.95
2023-04-22T01:15:14.434Z,55.10
2023-04-22T01:17:57.927Z,55.45
2023-04-22T01:20:29.566Z,55.15
2023-04-22T01:22:58.637Z,54.42
2023-04-22T01:25:29.055Z,52.40
2023-04-22T01:27:58.074Z,55.90
2023-04-22T01:30:27.444Z,53.47
2023-04-22T01:32:56.028Z,52.67
2023-04-22T01:35:26.041Z,54.17
2023-04-22T01:37:54.661Z,56.00
2023-04-22T01:40:24.637Z,53.17
2023-04-22T01:42:59.229Z,53.17
2023-04-22T01:45:27.911Z,53.83
2023-04-22T01:47:57.044Z,55.13
2023-04-22T01:50:25.692Z,55.60
2023-04-22T01:52:54.229Z,55.58
2023-04-22T01:55:24.619Z,54.47
2023-04-22T01:57:54.261Z,55.72
2023-04-22T02:00:22.487Z,54.08
2023-04-22T02:02:53.098Z,55.22
2023-04-22T02:05:21.444Z,55.28
2023-04-22T02:07:53.285Z,55.05
2023-04-22T02:10:21.966Z,54.17
2023-04-22T02:12:52.354Z,56.67
2023-04-22T02:15:22.967Z,54.35
2023-04-22T02:17:53.243Z,54.45
2023-04-22T02:20:22.833Z,55.72
2023-04-22T02:22:51.288Z,53.22
2023-04-22T02:25:22.361Z,54.78
2023-04-22T02:27:50.610Z,56.25
2023-04-22T02:30:19.284Z,54.40
2023-04-22T02:32:49.158Z,54.08
2023-04-22T02:35:17.618Z,54.13
2023-04-22T02:37:45.841Z,54.17
2023-04-22T02:40:14.375Z,55.65
2023-04-22T02:42:44.187Z,53.47
2023-04-22T02:45:13.015Z,54.38
2023-04-22T02:47:44.018Z,55.60
2023-04-22T02:50:14.005Z,54.75
2023-04-22T02:52:42.302Z,54.22
2023-04-22T02:55:11.206Z,54.83
2023-04-22T02:57:39.493Z,55.40
2023-04-22T03:00:09.400Z,56.05
2023-04-22T03:02:38.827Z,55.70
2023-04-22T03:05:08.097Z,56.10
2023-04-22T03:07:37.809Z,55.97
2023-04-22T03:10:07.125Z,56.10
2023-04-22T03:12:35.389Z,57.70
2023-04-22T03:15:03.791Z,57.33
2023-04-22T03:17:32.279Z,59.58
2023-04-22T03:20:00.422Z,57.55
2023-04-22T03:22:31.007Z,57.05
2023-04-22T03:25:00.653Z,56.03
2023-04-22T03:27:28.841Z,60.42
2023-04-22T03:29:57.108Z,57.50
2023-04-22T03:32:25.516Z,57.00
2023-04-22T03:34:56.912Z,62.30
2023-04-22T03:37:25.287Z,60.22
2023-04-22T03:39:53.524Z,60.22
2023-04-22T03:42:23.319Z,57.03
2023-04-22T03:44:51.580Z,56.50
2023-04-22T03:47:20.136Z,56.60
2023-04-22T03:49:48.654Z,57.45
2023-04-22T03:52:16.815Z,56.83
2023-04-22T03:54:45.206Z,55.78
2023-04-22T03:57:14.384Z,58.10
2023-04-22T03:59:44.077Z,57.28
2023-04-22T04:02:12.409Z,55.65
2023-04-22T04:04:42.780Z,55.80
2023-04-22T04:07:11.252Z,57.05
2023-04-22T04:09:39.951Z,57.42
2023-04-22T04:12:08.887Z,57.00
2023-04-22T04:14:37.361Z,55.10
2023-04-22T04:17:09.764Z,55.05
2023-04-22T04:19:39.908Z,55.00
2023-04-22T04:22:10.692Z,59.85
2023-04-22T04:24:42.411Z,59.03
2023-04-22T04:27:11.941Z,55.78
2023-04-22T04:29:43.964Z,56.85
2023-04-22T04:32:14.391Z,57.08
2023-04-22T04:34:45.262Z,55.88
2023-04-22T04:37:13.432Z,55.92
2023-04-22T04:39:42.337Z,56.65
2023-04-22T04:42:12.185Z,58.47
2023-04-22T04:44:40.583Z,54.88
2023-04-22T04:47:09.164Z,58.10
2023-04-22T04:49:43.008Z,55.38
2023-04-22T04:52:13.018Z,55.10
2023-04-22T04:54:41.284Z,53.60
2023-04-22T04:57:10.222Z,58.15
2023-04-22T04:59:38.516Z,57.38
2023-04-22T05:02:07.271Z,56.38
2023-04-22T05:04:35.716Z,54.80
2023-04-22T05:07:11.651Z,58.15
2023-04-22T05:09:49.257Z,58.60
2023-04-22T05:12:17.385Z,57.70
2023-04-22T05:14:46.615Z,56.97
2023-04-22T05:17:14.986Z,54.92
2023-04-22T05:19:46.250Z,55.60
2023-04-22T05:22:15.999Z,55.95
2023-04-22T05:24:44.306Z,58.15
2023-04-22T05:27:13.231Z,57.60
2023-04-22T05:29:41.902Z,57.53
2023-04-22T05:32:10.686Z,54.50
2023-04-22T05:34:38.921Z,53.90
2023-04-22T05:37:11.160Z,53.70
2023-04-22T05:39:41.981Z,58.38
2023-04-22T05:42:10.273Z,55.38
2023-04-22T05:44:38.626Z,58.10
2023-04-22T05:47:06.879Z,55.42
2023-04-22T05:49:39.867Z,52.70
2023-04-22T05:52:08.372Z,53.35
2023-04-22T05:54:36.604Z,55.47
2023-04-22T05:57:06.751Z,54.00
2023-04-22T05:59:37.789Z,55.00
2023-04-22T06:02:06.117Z,53.83
2023-04-22T06:04:37.323Z,54.10
2023-04-22T06:07:06.580Z,52.92
2023-04-22T06:09:34.783Z,53.20
2023-04-22T06:12:03.519Z,54.08
2023-04-22T06:14:33.331Z,54.10
2023-04-22T06:17:05.174Z,52.90
2023-04-22T06:19:33.622Z,51.95
2023-04-22T06:22:02.024Z,54.20
2023-04-22T06:24:30.451Z,52.95
2023-04-22T06:27:04.544Z,53.72
2023-04-22T06:29:34.664Z,51.72
2023-04-22T06:32:05.599Z,52.03
2023-04-22T06:34:36.136Z,50.35
2023-04-22T06:37:07.741Z,53.00
2023-04-22T06:39:36.244Z,53.00
2023-04-22T06:42:04.850Z,52.05
2023-04-22T06:44:37.574Z,50.30
2023-04-22T06:47:06.395Z,52.05
2023-04-22T06:49:35.716Z,52.00
2023-04-22T06:52:04.021Z,51.42
2023-04-22T06:54:40.966Z,51.45
2023-04-22T06:57:10.856Z,49.65
2023-04-22T06:59:41.815Z,50.25
2023-04-22T07:02:11.291Z,49.50
2023-04-22T07:04:39.672Z,49.63
2023-04-22T07:07:10.946Z,49.33
2023-04-22T07:09:39.464Z,50.45
2023-04-22T07:12:10.372Z,48.80
2023-04-22T07:14:47.223Z,49.92
2023-04-22T07:17:19.541Z,47.60
2023-04-22T07:19:48.050Z,48.33
2023-04-22T07:22:21.295Z,44.63
2023-04-22T07:24:50.875Z,47.30
2023-04-22T07:27:19.276Z,45.47
2023-04-22T07:29:52.680Z,47.50
2023-04-22T07:32:21.089Z,46.05
2023-04-22T07:34:49.310Z,45.20
2023-04-22T07:37:17.811Z,46.15
2023-04-22T07:39:47.981Z,45.78
2023-04-22T07:42:16.369Z,44.60
2023-04-22T07:44:44.737Z,44.75
2023-04-22T07:47:17.441Z,44.35
2023-04-22T07:49:48.078Z,43.83
2023-04-22T07:52:16.437Z,44.47
2023-04-22T07:54:44.764Z,43.78
2023-04-22T07:57:14.808Z,43.05
2023-04-22T07:59:45.684Z,41.05
2023-04-22T08:02:15.708Z,42.67
2023-04-22T08:04:44.395Z,41.10
2023-04-22T08:07:30.944Z,39.58
2023-04-22T08:10:01.456Z,38.40
2023-04-22T08:12:29.972Z,39.08
2023-04-22T08:14:59.031Z,39.50
2023-04-22T08:17:28.854Z,40.05
2023-04-22T08:19:57.270Z,37.45
2023-04-22T08:22:25.658Z,39.83
2023-04-22T08:24:53.854Z,41.05
2023-04-22T08:27:23.030Z,42.05
2023-04-22T08:29:51.376Z,42.40
2023-04-22T08:32:20.344Z,41.63
2023-04-22T08:34:54.092Z,42.42
2023-04-22T08:37:26.460Z,43.42
2023-04-22T08:40:08.585Z,42.35
2023-04-22T08:42:38.119Z,43.95
2023-04-22T08:45:07.347Z,43.80
2023-04-22T08:47:36.968Z,41.25
2023-04-22T08:50:09.792Z,42.25
2023-04-22T08:52:38.469Z,44.30
2023-04-22T08:55:08.046Z,45.55
2023-04-22T08:57:37.978Z,46.40
2023-04-22T09:00:08.804Z,46.08
2023-04-22T09:02:39.074Z,46.13
2023-04-22T09:05:11.401Z,46.60
2023-04-22T09:07:43.013Z,44.15
2023-04-22T09:10:17.460Z,45.63
2023-04-22T09:12:46.255Z,45.88
2023-04-22T09:15:14.490Z,45.08
2023-04-22T09:17:43.769Z,46.40
2023-04-22T09:20:15.490Z,46.88
2023-04-22T09:22:46.213Z,47.33
2023-04-22T09:25:18.779Z,44.85
2023-04-22T09:27:53.273Z,40.63
2023-04-22T09:30:26.879Z,40.95
2023-04-22T09:32:58.831Z,35.65
2023-04-22T09:35:32.551Z,28.85
2023-04-22T09:38:02.515Z,14.95
2023-04-22T09:40:33.684Z,10.48
2023-04-22T09:43:04.541Z,9.73
2023-04-22T09:45:34.724Z,16.60
2023-04-22T09:48:09.267Z,15.10
2023-04-22T09:50:39.927Z,10.23
2023-04-22T09:53:12.085Z,9.00
2023-04-22T09:55:42.985Z,7.05
2023-04-22T09:58:13.037Z,5.93
2023-04-22T10:00:44.881Z,6.57
2023-04-22T10:03:13.118Z,6.68
2023-04-22T10:05:44.990Z,6.88
2023-04-22T10:08:14.296Z,6.47
2023-04-22T10:10:45.050Z,7.22
2023-04-22T10:13:13.199Z,8.13
2023-04-22T10:15:49.738Z,8.20
2023-04-22T10:18:22.569Z,8.45
2023-04-22T10:20:54.778Z,8.63
2023-04-22T10:23:27.635Z,10.05
2023-04-22T10:25:58.184Z,9.20
2023-04-22T10:28:30.755Z,9.40
2023-04-22T10:30:59.090Z,9.27
2023-04-22T10:33:41.109Z,9.10
2023-04-22T10:36:16.698Z,9.00
2023-04-22T10:39:19.005Z,9.45
2023-04-22T10:41:53.400Z,9.20
2023-04-22T10:44:22.721Z,8.95
2023-04-22T10:47:03.172Z,9.15
2023-04-22T10:49:32.845Z,9.18
2023-04-22T10:52:06.177Z,8.95
2023-04-22T10:55:02.568Z,9.00
2023-04-22T10:57:40.577Z,9.93
2023-04-22T11:00:52.533Z,8.98
2023-04-22T11:03:28.318Z,9.85
2023-04-22T11:06:16.381Z,10.25
2023-04-22T11:08:47.884Z,10.73
2023-04-22T11:11:17.815Z,13.18
2023-04-22T11:13:47.639Z,15.55
2023-04-22T11:16:20.461Z,13.57
2023-04-22T11:18:56.804Z,12.68
2023-04-22T11:21:28.975Z,20.45
2023-04-22T11:24:02.876Z,21.50
2023-04-22T11:26:35.676Z,25.02
2023-04-22T11:29:03.759Z,32.00
2023-04-22T11:31:31.952Z,30.77
2023-04-22T11:34:00.568Z,35.38
2023-04-22T11:36:28.935Z,40.55
2023-04-22T11:38:58.749Z,43.78
2023-04-22T11:41:26.811Z,50.58
2023-04-22T11:43:56.043Z,54.20
2023-04-22T11:46:31.531Z,55.25
2023-04-22T11:49:16.206Z,56.20
2023-04-22T11:51:55.524Z,58.08
2023-04-22T11:54:38.698Z,63.00
2023-04-22T11:57:09.660Z,59.92
2023-04-22T11:59:38.283Z,61.58
2023-04-22T12:02:07.471Z,61.40
2023-04-22T12:04:40.771Z,60.95
2023-04-22T12:07:09.499Z,61.95
2023-04-22T12:09:41.493Z,64.75
2023-04-22T12:12:09.931Z,64.10
2023-04-22T12:14:38.568Z,63.83
2023-04-22T12:17:07.274Z,62.63
2023-04-22T12:19:35.562Z,62.75
2023-04-22T12:22:05.924Z,63.63
2023-04-22T12:24:34.136Z,65.20
2023-04-22T12:27:04.668Z,64.05
2023-04-22T12:29:34.567Z,64.07
2023-04-22T12:32:03.196Z,63.83
2023-04-22T12:34:31.338Z,60.67
2023-04-22T12:37:00.825Z,64.28
2023-04-22T12:39:28.965Z,62.17
2023-04-22T12:41:57.933Z,62.40
2023-04-22T12:44:27.549Z,63.25
2023-04-22T12:46:55.820Z,63.13
2023-04-22T12:49:24.024Z,61.55
2023-04-22T12:51:52.624Z,61.70
2023-04-22T12:54:21.589Z,62.35
2023-04-22T12:56:50.213Z,63.10
2023-04-22T12:59:18.396Z,63.13
2023-04-22T13:01:48.024Z,62.17
2023-04-22T13:04:16.394Z,63.42
2023-04-22T13:06:47.807Z,64.25
2023-04-22T13:09:24.117Z,61.75
2023-04-22T13:11:52.307Z,64.20
2023-04-22T13:14:20.766Z,61.35
2023-04-22T13:16:50.726Z,60.45
2023-04-22T13:19:18.997Z,61.80
2023-04-22T13:21:47.142Z,60.53
2023-04-22T13:24:15.391Z,60.40
2023-04-22T13:26:44.926Z,59.20
2023-04-22T13:29:14.292Z,58.78
2023-04-22T13:31:44.732Z,58.65
2023-04-22T13:34:15.397Z,59.60
2023-04-22T13:36:45.793Z,58.85
2023-04-22T13:39:17.963Z,58.80
2023-04-22T13:41:46.450Z,59.03
2023-04-22T13:44:15.061Z,56.67
2023-04-22T13:46:45.412Z,59.20
2023-04-22T13:49:14.878Z,60.75
2023-04-22T13:51:42.971Z,60.13
2023-04-22T13:54:11.057Z,61.00
2023-04-22T13:56:39.265Z,61.22
2023-04-22T13:59:07.515Z,61.58
2023-04-22T14:01:35.877Z,62.72
2023-04-22T14:04:04.200Z,61.45
2023-04-22T14:06:34.194Z,61.00
2023-04-22T14:09:20.435Z,61.58
2023-04-22T14:11:48.674Z,62.83
2023-04-22T14:14:16.833Z,61.80
2023-04-22T14:16:45.042Z,60.90
2023-04-22T14:19:14.448Z,63.15
2023-04-22T14:21:44.080Z,62.90
2023-04-22T14:24:12.239Z,63.80
2023-04-22T14:26:42.715Z,65.25
2023-04-22T14:29:10.822Z,65.43
2023-04-22T14:31:38.821Z,64.60
2023-04-22T14:34:06.961Z,61.95
2023-04-22T14:36:35.604Z,60.80
2023-04-22T14:39:05.426Z,63.80
2023-04-22T14:41:33.495Z,63.10
2023-04-22T14:44:01.618Z,60.00
2023-04-22T14:46:30.568Z,57.90
2023-04-22T14:48:58.712Z,55.15
2023-04-22T14:51:29.036Z,54.25
2023-04-22T14:53:59.737Z,53.60
2023-04-22T14:56:29.258Z,54.05
2023-04-22T14:58:57.991Z,53.28
2023-04-22T15:01:28.454Z,54.00
2023-04-22T15:03:56.762Z,52.88
2023-04-22T15:06:25.351Z,54.17
2023-04-22T15:08:53.745Z,53.80
2023-04-22T15:11:22.074Z,56.03
2023-04-22T15:13:52.002Z,56.63
2023-04-22T15:16:20.556Z,58.67
2023-04-22T15:18:51.266Z,56.97
2023-04-22T15:21:22.223Z,59.63
2023-04-22T15:23:53.650Z,59.75
2023-04-22T15:26:21.786Z,61.92
2023-04-22T15:28:52.723Z,60.13
2023-04-22T15:31:23.098Z,59.72
2023-04-22T15:33:52.089Z,59.22
2023-04-22T15:36:22.464Z,59.08
2023-04-22T15:38:56.224Z,62.38
2023-04-22T15:41:24.917Z,62.50
2023-04-22T15:43:54.780Z,60.03
2023-04-22T15:46:24.008Z,60.53
2023-04-22T15:48:52.529Z,61.38
2023-04-22T15:51:21.966Z,63.83
2023-04-22T15:53:59.730Z,61.78
2023-04-22T15:56:29.502Z,62.47
2023-04-22T15:58:59.054Z,62.08
2023-04-22T16:01:27.467Z,63.28
2023-04-22T16:03:58.297Z,61.72
2023-04-22T16:06:26.753Z,63.45
2023-04-22T16:09:22.177Z,62.72
2023-04-22T16:12:21.514Z,66.03
2023-04-22T16:14:51.265Z,71.22
2023-04-22T16:17:24.338Z,66.13
2023-04-22T16:19:52.826Z,62.60
2023-04-22T16:22:41.797Z,61.75
2023-04-22T16:25:12.874Z,62.30
2023-04-22T16:27:45.469Z,63.33
2023-04-22T16:30:16.280Z,64.20
2023-04-22T16:32:44.874Z,61.55
2023-04-22T16:35:13.206Z,61.85
2023-04-22T16:37:43.990Z,61.95
2023-04-22T16:40:12.648Z,59.97
2023-04-22T16:42:40.894Z,61.05
2023-04-22T16:45:09.918Z,57.13
2023-04-22T16:47:42.973Z,59.90
2023-04-22T16:50:12.605Z,60.28
2023-04-22T16:52:40.857Z,59.53
2023-04-22T16:55:09.856Z,58.28
2023-04-22T16:57:38.118Z,60.15
2023-04-22T17:00:09.009Z,59.30
2023-04-22T17:02:37.373Z,59.47
2023-04-22T17:05:07.897Z,58.67
2023-04-22T17:07:36.135Z,59.20
2023-04-22T17:10:07.116Z,59.10
2023-04-22T17:12:35.777Z,60.35
2023-04-22T17:15:04.138Z,59.85
2023-04-22T17:17:32.419Z,61.22
2023-04-22T17:20:00.668Z,60.28
2023-04-22T17:22:30.403Z,59.38
2023-04-22T17:24:59.095Z,58.15
2023-04-22T17:27:28.327Z,54.25
2023-04-22T17:29:57.149Z,53.15
2023-04-22T17:32:25.750Z,52.72
2023-04-22T17:34:55.180Z,52.15
2023-04-22T17:37:23.270Z,50.75
2023-04-22T17:39:53.084Z,47.63
2023-04-22T17:42:21.542Z,42.83
2023-04-22T17:44:50.495Z,40.75
2023-04-22T17:47:18.759Z,38.03
2023-04-22T17:49:52.511Z,37.10
2023-04-22T17:52:20.800Z,39.58
2023-04-22T17:54:49.736Z,39.72
2023-04-22T17:57:19.474Z,42.25
2023-04-22T17:59:47.662Z,41.28
2023-04-22T18:02:17.440Z,42.25
2023-04-22T18:04:45.566Z,42.65
2023-04-22T18:07:13.854Z,44.78
2023-04-22T18:09:44.186Z,45.70
2023-04-22T18:12:12.565Z,46.20
2023-04-22T18:14:58.574Z,47.13
2023-04-22T18:17:27.106Z,48.30
2023-04-22T18:20:09.742Z,48.20
2023-04-22T18:22:42.748Z,48.03
2023-04-22T18:25:11.128Z,48.95
2023-04-22T18:27:39.255Z,50.17
2023-04-22T18:30:10.073Z,50.92
2023-04-22T18:32:39.158Z,50.80
2023-04-22T18:35:08.629Z,49.50
2023-04-22T18:37:38.834Z,49.10
2023-04-22T18:40:11.102Z,47.72
2023-04-22T18:42:45.118Z,49.22
2023-04-22T18:45:18.742Z,48.55
2023-04-22T18:47:47.304Z,51.92
2023-04-22T18:50:15.917Z,53.00
2023-04-22T18:52:44.280Z,51.53
2023-04-22T18:55:21.531Z,53.70
2023-04-22T18:57:52.700Z,53.53
2023-04-22T19:00:22.438Z,54.40
2023-04-22T19:02:50.823Z,52.42
2023-04-22T19:05:21.914Z,51.50
2023-04-22T19:07:50.372Z,51.35
2023-04-22T19:10:22.213Z,53.05
2023-04-22T19:12:53.797Z,52.78
2023-04-22T19:15:35.347Z,53.15
2023-04-22T19:18:11.864Z,53.13
2023-04-22T19:20:40.943Z,54.10
2023-04-22T19:23:09.269Z,51.15
2023-04-22T19:25:40.623Z,51.60
2023-04-22T19:28:09.061Z,53.90
2023-04-22T19:30:38.856Z,51.08
2023-04-22T19:33:07.398Z,51.80
2023-04-22T19:35:35.799Z,53.95
2023-04-22T19:38:06.876Z,53.80
2023-04-22T19:40:36.340Z,52.78
2023-04-22T19:43:04.977Z,50.67
2023-04-22T19:45:33.303Z,51.38
2023-04-22T19:48:04.184Z,51.25
2023-04-22T19:50:34.571Z,52.58
2023-04-22T19:53:07.790Z,52.08
2023-04-22T19:55:40.756Z,51.60
2023-04-22T19:58:09.757Z,51.55
2023-04-22T20:00:39.302Z,52.47
2023-04-22T20:03:10.946Z,52.88
2023-04-22T20:05:43.354Z,52.30
2023-04-22T20:08:13.249Z,54.13
2023-04-22T20:10:42.448Z,51.97
2023-04-22T20:13:24.536Z,53.53
2023-04-22T20:15:54.964Z,55.65
2023-04-22T20:18:28.160Z,56.17
2023-04-22T20:21:21.654Z,55.53
2023-04-22T20:23:52.417Z,55.60
2023-04-22T20:57:10.313Z,59.92
2023-04-22T21:00:04.356Z,59.45
2023-04-22T21:02:35.568Z,57.58
2023-04-22T21:05:22.905Z,57.65
2023-04-22T21:07:53.242Z,56.97
2023-04-22T21:22:16.621Z,57.88
2023-04-22T21:43:43.698Z,57.80
2023-04-22T21:50:47.405Z,57.78
2023-04-22T21:54:14.141Z,58.80
2023-04-22T21:56:57.498Z,59.38
2023-04-22T22:04:02.722Z,58.22
2023-04-22T22:06:33.328Z,57.10
2023-04-22T22:09:01.507Z,57.35
2023-04-22T22:11:31.350Z,58.78
2023-04-22T22:14:00.104Z,59.15
2023-04-22T22:16:28.399Z,56.80
2023-04-22T22:18:58.491Z,58.45
2023-04-22T22:21:26.839Z,57.65
2023-04-22T22:23:57.704Z,56.70
2023-04-22T22:26:26.229Z,57.38
2023-04-22T22:28:56.818Z,57.95
2023-04-22T22:31:30.221Z,58.42
2023-04-22T22:33:58.835Z,58.83
2023-04-22T22:36:29.874Z,59.10
2023-04-22T22:39:00.117Z,60.50
2023-04-22T22:41:28.319Z,62.88
2023-04-22T22:43:56.850Z,64.72
2023-04-22T22:46:25.097Z,63.55
2023-04-22T22:48:53.341Z,60.75
2023-04-22T22:51:22.000Z,58.53
2023-04-22T22:53:50.084Z,60.17
2023-04-22T22:56:21.027Z,58.13
2023-04-22T22:58:49.400Z,59.22
2023-04-22T23:01:17.931Z,59.60
2023-04-22T23:03:47.286Z,57.67
2023-04-22T23:06:15.915Z,57.45
2023-04-22T23:08:44.132Z,58.70
2023-04-22T23:11:12.618Z,57.78
2023-04-22T23:13:42.532Z,57.63
2023-04-22T23:16:10.909Z,57.47
2023-04-22T23:18:40.600Z,58.50
2023-04-22T23:21:10.521Z,56.40
2023-04-22T23:23:39.213Z,57.10
2023-04-22T23:26:08.143Z,57.72
2023-04-22T23:28:37.227Z,60.17
2023-04-22T23:31:08.529Z,59.00
2023-04-22T23:33:40.070Z,59.08
2023-04-22T23:36:10.499Z,60.47
2023-04-22T23:38:38.806Z,59.28
2023-04-22T23:41:07.122Z,58.85
2023-04-22T23:43:35.637Z,58.15
2023-04-22T23:46:04.301Z,59.70
2023-04-22T23:48:34.300Z,59.00
2023-04-22T23:51:05.014Z,60.58
2023-04-22T23:53:35.157Z,59.85
2023-04-22T23:56:04.010Z,61.75
2023-04-22T23:58:32.526Z,59.78
